createdAt,value
2019-06-07T00:02:18.773Z,13.40
2019-06-07T00:04:48.372Z,11.80
2019-06-07T00:07:21.413Z,12.20
2019-06-07T00:09:49.014Z,14.33
2019-06-07T00:12:21.630Z,15.03
2019-06-07T00:14:49.586Z,14.40
2019-06-07T00:17:20.212Z,12.50
2019-06-07T00:19:50.500Z,14.60
2019-06-07T00:22:32.606Z,14.83
2019-06-07T00:24:51.190Z,14.90
2019-06-07T00:27:22.435Z,11.77
2019-06-07T00:29:51.767Z,14.30
2019-06-07T00:32:22.280Z,15.43
2019-06-07T00:34:51.833Z,12.57
2019-06-07T00:37:25.219Z,19.73
2019-06-07T00:40:12.833Z,15.20
2019-06-07T00:42:24.127Z,13.27
2019-06-07T00:44:53.978Z,14.63
2019-06-07T00:47:25.505Z,16.97
2019-06-07T00:49:54.585Z,13.00
2019-06-07T00:53:11.572Z,12.23
2019-06-07T00:54:55.446Z,15.20
2019-06-07T00:57:24.874Z,15.13
2019-06-07T00:59:56.958Z,12.80
2019-06-07T01:02:31.277Z,13.03
2019-06-07T01:04:57.600Z,16.07
2019-06-07T01:07:27.057Z,14.53
2019-06-07T01:09:56.464Z,16.77
2019-06-07T01:12:27.007Z,16.47
2019-06-07T01:14:56.789Z,16.87
2019-06-07T01:17:41.156Z,15.67
2019-06-07T01:19:59.210Z,14.57
2019-06-07T01:22:29.548Z,17.27
2019-06-07T01:24:59.336Z,16.60
2019-06-07T01:27:28.920Z,15.87
2019-06-07T01:29:58.349Z,14.83
2019-06-07T01:32:31.433Z,13.13
2019-06-07T01:34:58.963Z,14.60
2019-06-07T01:37:30.155Z,15.43
2019-06-07T01:39:59.645Z,16.60
2019-06-07T01:42:30.980Z,16.77
2019-06-07T01:45:00.211Z,21.37
2019-06-07T01:47:32.013Z,16.67
2019-06-07T01:50:00.820Z,16.93
2019-06-07T01:52:30.275Z,15.47
2019-06-07T01:54:59.679Z,15.27
2019-06-07T01:57:44.222Z,13.10
2019-06-07T02:00:00.273Z,19.37
2019-06-07T02:02:31.610Z,16.40
2019-06-07T02:05:00.970Z,16.87
2019-06-07T02:07:32.988Z,13.37
2019-06-07T02:10:01.590Z,14.50
2019-06-07T02:12:40.776Z,19.57
2019-06-07T02:15:02.456Z,16.97
2019-06-07T02:17:33.184Z,17.63
2019-06-07T02:20:02.887Z,15.60
2019-06-07T02:22:32.651Z,16.97
2019-06-07T02:25:35.096Z,15.77
2019-06-07T02:27:33.466Z,16.50
2019-06-07T02:30:35.435Z,14.60
2019-06-07T02:32:36.794Z,16.07
2019-06-07T02:35:05.555Z,21.03
2019-06-07T02:37:36.878Z,16.13
2019-06-07T02:40:07.290Z,19.23
2019-06-07T02:42:41.903Z,14.00
2019-06-07T02:45:10.735Z,15.03
2019-06-07T02:47:40.714Z,15.43
2019-06-07T02:50:11.002Z,15.33
2019-06-07T02:52:41.453Z,15.30
2019-06-07T02:55:11.798Z,14.07
2019-06-07T02:57:42.847Z,17.90
2019-06-07T03:00:51.405Z,15.17
2019-06-07T03:02:44.663Z,13.30
2019-06-07T03:05:14.216Z,14.10
2019-06-07T03:07:45.900Z,14.73
2019-06-07T03:10:15.953Z,15.43
2019-06-07T03:12:48.303Z,32.63
2019-06-07T03:15:32.980Z,18.33
2019-06-07T03:18:07.027Z,15.97
2019-06-07T03:20:37.047Z,14.40
2019-06-07T03:23:06.519Z,17.97
2019-06-07T03:25:39.106Z,16.13
2019-06-07T03:28:08.854Z,14.00
2019-06-07T03:30:52.179Z,14.13
2019-06-07T03:33:09.907Z,17.13
2019-06-07T03:35:40.752Z,18.93
2019-06-07T03:38:10.331Z,17.57
2019-06-07T03:40:40.303Z,10.90
2019-06-07T03:43:09.713Z,10.10
2019-06-07T03:45:41.485Z,11.80
2019-06-07T03:48:10.367Z,17.20
2019-06-07T03:50:42.325Z,14.40
2019-06-07T03:53:11.542Z,18.77
2019-06-07T03:55:41.570Z,16.37
2019-06-07T03:58:31.554Z,16.70
2019-06-07T04:00:43.657Z,12.00
2019-06-07T04:03:32.478Z,12.30
2019-06-07T04:05:44.339Z,13.40
2019-06-07T04:08:13.798Z,11.53
2019-06-07T04:10:58.658Z,14.77
2019-06-07T04:13:14.735Z,9.83
2019-06-07T04:15:44.527Z,16.17
2019-06-07T04:18:14.740Z,10.68
2019-06-07T04:20:44.236Z,11.12
2019-06-07T04:23:27.676Z,14.20
2019-06-07T04:25:46.088Z,12.05
2019-06-07T04:28:15.519Z,9.68
2019-06-07T04:30:45.787Z,11.33
2019-06-07T04:33:15.641Z,12.07
2019-06-07T04:35:45.448Z,12.88
2019-06-07T04:38:15.529Z,10.88
2019-06-07T04:40:47.109Z,9.45
2019-06-07T04:43:16.745Z,9.28
2019-06-07T04:45:51.082Z,5.78
2019-06-07T04:48:21.195Z,8.10
2019-06-07T04:50:52.434Z,12.45
2019-06-07T04:53:21.959Z,16.60
2019-06-07T04:55:51.655Z,10.03
2019-06-07T04:58:21.111Z,8.05
2019-06-07T05:00:56.374Z,5.92
2019-06-07T05:03:21.667Z,17.67
2019-06-07T05:05:51.166Z,9.63
2019-06-07T05:08:28.101Z,11.68
2019-06-07T05:10:51.771Z,9.05
2019-06-07T05:13:21.151Z,6.83
2019-06-07T05:15:50.611Z,11.20
2019-06-07T05:18:20.105Z,9.98
2019-06-07T05:20:49.472Z,7.75
2019-06-07T05:23:59.863Z,9.38
2019-06-07T05:25:50.092Z,7.28
2019-06-07T05:28:22.091Z,10.48
2019-06-07T05:31:03.404Z,7.95
2019-06-07T05:33:22.638Z,14.47
2019-06-07T05:35:52.200Z,16.57
2019-06-07T05:38:21.678Z,19.48
2019-06-07T05:40:51.081Z,41.40
2019-06-07T05:43:25.536Z,33.92
2019-06-07T05:45:54.994Z,8.63
2019-06-07T05:48:24.574Z,16.70
2019-06-07T05:50:56.956Z,18.52
2019-06-07T05:53:25.045Z,12.50
2019-06-07T05:55:54.552Z,12.80
2019-06-07T05:58:24.030Z,17.50
2019-06-07T06:00:53.408Z,19.35
2019-06-07T06:03:22.857Z,64.03
2019-06-07T06:05:55.188Z,77.20
2019-06-07T06:08:23.881Z,18.82
2019-06-07T06:10:53.308Z,21.00
2019-06-07T06:13:22.802Z,34.90
2019-06-07T06:16:01.169Z,117.13
2019-06-07T06:18:23.319Z,179.53
2019-06-07T06:21:15.674Z,69.25
2019-06-07T06:23:24.096Z,174.38
2019-06-07T06:25:57.504Z,104.80
2019-06-07T06:28:25.127Z,153.32
2019-06-07T06:30:54.602Z,58.52
2019-06-07T06:33:33.777Z,148.25
2019-06-07T06:35:55.209Z,51.80
2019-06-07T06:38:24.606Z,146.35
2019-06-07T06:41:13.936Z,136.85
2019-06-07T06:43:26.263Z,89.32
2019-06-07T06:45:55.729Z,186.32
2019-06-07T06:48:25.189Z,75.42
2019-06-07T06:50:54.712Z,39.65
2019-06-07T06:53:24.137Z,76.40
2019-06-07T06:55:53.642Z,27.27
2019-06-07T06:58:23.408Z,28.95
2019-06-07T07:01:05.286Z,26.35
2019-06-07T07:03:56.503Z,16.67
2019-06-07T07:05:56.658Z,11.85
2019-06-07T07:08:26.230Z,23.30
2019-06-07T07:10:55.647Z,32.10
2019-06-07T07:13:25.227Z,32.67
2019-06-07T07:15:58.162Z,25.23
2019-06-07T07:18:25.940Z,8.00
2019-06-07T07:20:57.434Z,14.07
2019-06-07T07:23:26.623Z,12.07
2019-06-07T07:25:59.242Z,28.07
2019-06-07T07:28:27.130Z,11.30
2019-06-07T07:30:57.492Z,16.12
2019-06-07T07:34:20.164Z,14.30
2019-06-07T07:36:35.276Z,8.13
2019-06-07T07:38:29.665Z,12.25
2019-06-07T07:41:14.173Z,8.48
2019-06-07T07:43:30.259Z,25.50
2019-06-07T07:46:03.421Z,8.10
2019-06-07T07:48:31.455Z,5.97
2019-06-07T07:51:03.138Z,11.50
2019-06-07T07:53:47.931Z,5.58
2019-06-07T07:56:03.262Z,6.95
2019-06-07T07:58:32.647Z,5.97
2019-06-07T08:01:10.044Z,9.93
2019-06-07T08:03:33.213Z,7.80
2019-06-07T08:06:02.588Z,6.90
2019-06-07T08:08:31.961Z,8.88
2019-06-07T08:11:02.509Z,13.78
2019-06-07T08:13:32.334Z,8.50
2019-06-07T08:16:11.501Z,9.28
2019-06-07T08:18:33.033Z,11.15
2019-06-07T08:21:21.613Z,11.05
2019-06-07T08:23:33.723Z,9.65
2019-06-07T08:26:03.152Z,6.00
2019-06-07T08:28:32.493Z,8.58
2019-06-07T08:31:06.702Z,6.30
2019-06-07T08:33:32.995Z,8.60
2019-06-07T08:36:16.920Z,8.48
2019-06-07T08:38:47.590Z,10.63
2019-06-07T08:41:11.834Z,9.23
2019-06-07T08:43:37.783Z,5.47
2019-06-07T08:46:10.061Z,9.18
2019-06-07T08:48:40.854Z,8.10
2019-06-07T08:51:10.225Z,9.53
2019-06-07T08:53:39.642Z,14.63
2019-06-07T08:56:11.139Z,18.75
2019-06-07T08:58:40.148Z,25.92
2019-06-07T09:01:09.901Z,12.13
2019-06-07T09:03:39.460Z,5.58
2019-06-07T09:06:53.760Z,8.10
2019-06-07T09:08:40.058Z,7.45
2019-06-07T09:11:11.310Z,7.58
2019-06-07T09:13:40.687Z,8.08
2019-06-07T09:16:10.104Z,6.17
2019-06-07T09:18:43.728Z,8.25
2019-06-07T09:21:10.620Z,7.15
2019-06-07T09:23:39.996Z,7.15
2019-06-07T09:26:17.964Z,4.92
2019-06-07T09:28:40.454Z,7.95
2019-06-07T09:31:12.560Z,6.78
2019-06-07T09:33:41.033Z,10.98
2019-06-07T09:36:13.172Z,8.05
2019-06-07T09:38:42.720Z,5.72
2019-06-07T09:41:12.316Z,4.87
2019-06-07T09:46:16.264Z,5.72
2019-06-07T09:51:20.008Z,5.78
2019-06-07T09:53:46.249Z,4.20
2019-06-07T09:56:15.615Z,6.20
2019-06-07T09:58:52.042Z,5.47
2019-06-07T10:01:16.327Z,8.03
2019-06-07T10:03:45.767Z,5.03
2019-06-07T10:06:15.135Z,9.03
2019-06-07T10:11:16.569Z,6.65
2019-06-07T10:13:45.954Z,6.72
2019-06-07T10:16:15.373Z,8.20
2019-06-07T10:18:44.753Z,9.55
2019-06-07T10:21:15.182Z,7.58
2019-06-07T10:23:44.843Z,5.08
2019-06-07T10:26:14.218Z,5.62
2019-06-07T10:28:43.576Z,5.12
2019-06-07T10:31:12.995Z,6.42
2019-06-07T10:33:42.448Z,8.00
2019-06-07T10:36:11.835Z,8.68
2019-06-07T10:38:41.235Z,8.53
2019-06-07T10:41:11.144Z,8.48
2019-06-07T10:43:40.691Z,5.83
2019-06-07T10:46:12.081Z,3.52
2019-06-07T10:48:43.681Z,3.85
2019-06-07T10:51:14.790Z,3.58
2019-06-07T10:53:44.431Z,3.62
2019-06-07T10:56:13.822Z,4.22
2019-06-07T10:58:43.299Z,4.20
2019-06-07T11:01:14.304Z,3.30
2019-06-07T11:03:43.976Z,5.12
2019-06-07T11:06:14.233Z,3.10
2019-06-07T11:08:43.789Z,5.90
2019-06-07T11:11:14.426Z,4.90
2019-06-07T11:13:43.968Z,5.30
2019-06-07T11:16:13.516Z,7.53
2019-06-07T11:18:44.710Z,3.95
2019-06-07T11:21:14.384Z,7.25
2019-06-07T11:23:43.892Z,3.80
2019-06-07T11:26:14.437Z,7.20
2019-06-07T11:28:55.429Z,6.90
2019-06-07T11:31:24.825Z,5.47
2019-06-07T11:33:54.291Z,6.78
2019-06-07T11:36:23.803Z,4.10
2019-06-07T11:38:53.207Z,6.83
2019-06-07T11:41:22.609Z,7.62
2019-06-07T11:43:52.031Z,7.58
2019-06-07T11:46:21.492Z,9.53
2019-06-07T11:48:50.953Z,19.40
2019-06-07T11:51:20.391Z,12.85
2019-06-07T11:53:49.883Z,4.17
2019-06-07T11:56:19.401Z,5.25
2019-06-07T11:58:48.967Z,10.50
2019-06-07T12:01:18.727Z,11.22
2019-06-07T12:03:48.372Z,35.90
2019-06-07T12:06:18.166Z,23.32
2019-06-07T12:08:47.643Z,21.82
2019-06-07T12:11:18.427Z,35.65
2019-06-07T12:13:48.029Z,7.03
2019-06-07T12:16:17.539Z,15.53
2019-06-07T12:18:46.948Z,5.45
2019-06-07T12:21:17.958Z,5.17
2019-06-07T12:23:47.635Z,4.70
2019-06-07T12:26:17.025Z,7.22
2019-06-07T12:28:46.440Z,3.70
2019-06-07T12:31:17.158Z,5.35
2019-06-07T12:33:46.755Z,3.33
2019-06-07T12:36:16.143Z,4.58
2019-06-07T12:38:45.650Z,8.55
2019-06-07T12:41:16.153Z,4.10
2019-06-07T12:43:45.612Z,8.18
2019-06-07T12:46:21.164Z,3.77
2019-06-07T12:48:46.340Z,3.17
2019-06-07T12:51:17.115Z,5.42
2019-06-07T12:53:46.765Z,4.85
2019-06-07T12:56:17.641Z,5.97
2019-06-07T12:58:47.180Z,3.98
2019-06-07T13:01:18.079Z,6.03
2019-06-07T13:03:47.754Z,3.55
2019-06-07T13:06:17.732Z,3.83
2019-06-07T13:08:49.635Z,4.47
2019-06-07T13:11:24.329Z,3.65
2019-06-07T13:13:50.209Z,3.52
2019-06-07T13:16:20.054Z,2.80
2019-06-07T13:18:49.591Z,3.25
2019-06-07T13:21:20.236Z,6.03
2019-06-07T13:23:49.785Z,3.90
2019-06-07T13:26:24.951Z,4.60
2019-06-07T13:28:54.639Z,3.70
2019-06-07T13:31:25.252Z,3.12
2019-06-07T13:33:54.925Z,3.30
2019-06-07T13:36:24.519Z,5.00
2019-06-07T13:38:54.262Z,6.08
2019-06-07T13:41:36.316Z,5.85
2019-06-07T13:43:54.972Z,3.87
2019-06-07T13:46:25.351Z,2.98
2019-06-07T13:48:54.875Z,5.72
2019-06-07T13:51:25.239Z,3.50
2019-06-07T13:53:55.559Z,3.25
2019-06-07T13:56:26.050Z,5.75
2019-06-07T13:58:55.628Z,6.80
2019-06-07T14:01:26.929Z,2.87
2019-06-07T14:03:56.282Z,8.78
2019-06-07T14:06:27.776Z,5.12
2019-06-07T14:08:56.887Z,9.25
2019-06-07T14:11:27.772Z,4.90
2019-06-07T14:13:57.369Z,3.65
2019-06-07T14:16:28.252Z,3.35
2019-06-07T14:18:57.938Z,4.35
2019-06-07T14:21:28.687Z,3.00
2019-06-07T14:23:58.269Z,3.42
2019-06-07T14:26:27.736Z,4.47
2019-06-07T14:28:57.172Z,4.92
2019-06-07T14:31:26.523Z,6.80
2019-06-07T14:33:56.030Z,7.20
2019-06-07T14:36:26.912Z,7.00
2019-06-07T14:38:56.427Z,6.47
2019-06-07T14:41:27.059Z,2.67
2019-06-07T14:43:56.762Z,7.00
2019-06-07T14:46:26.238Z,6.25
2019-06-07T14:48:55.667Z,6.33
2019-06-07T14:51:26.213Z,5.83
2019-06-07T14:53:55.669Z,7.45
2019-06-07T14:56:25.046Z,15.55
2019-06-07T14:58:54.486Z,15.32
2019-06-07T15:01:23.981Z,6.12
2019-06-07T15:03:53.415Z,6.92
2019-06-07T15:06:22.849Z,4.08
2019-06-07T15:08:52.299Z,7.65
2019-06-07T15:11:21.942Z,18.27
2019-06-07T15:13:51.440Z,12.80
2019-06-07T15:16:20.803Z,8.10
2019-06-07T15:18:50.298Z,9.58
2019-06-07T15:21:19.795Z,4.30
2019-06-07T15:23:49.243Z,6.53
2019-06-07T15:26:18.600Z,10.90
2019-06-07T15:28:48.088Z,10.48
2019-06-07T15:31:17.502Z,7.42
2019-06-07T15:33:46.921Z,5.72
2019-06-07T15:36:16.881Z,5.75
2019-06-07T15:38:46.301Z,11.53
2019-06-07T15:41:15.679Z,5.58
2019-06-07T15:43:45.137Z,7.00
2019-06-07T15:46:14.658Z,7.95
2019-06-07T15:48:44.080Z,10.78
2019-06-07T15:51:13.492Z,13.48
2019-06-07T15:53:44.692Z,12.40
2019-06-07T15:56:14.118Z,9.00
2019-06-07T15:58:43.618Z,9.08
2019-06-07T16:01:12.986Z,9.03
2019-06-07T16:03:42.410Z,12.90
2019-06-07T16:06:11.911Z,9.90
2019-06-07T16:08:42.520Z,10.60
2019-06-07T16:11:12.109Z,12.55
2019-06-07T16:13:42.781Z,6.42
2019-06-07T16:16:12.532Z,5.92
2019-06-07T16:18:44.048Z,8.03
2019-06-07T16:21:13.130Z,10.35
2019-06-07T16:23:44.117Z,12.55
2019-06-07T16:26:13.724Z,12.33
2019-06-07T16:28:44.618Z,14.05
2019-06-07T16:31:14.126Z,9.13
2019-06-07T16:33:43.546Z,7.45
2019-06-07T16:36:13.057Z,11.90
2019-06-07T16:38:42.460Z,11.93
2019-06-07T16:41:11.836Z,6.42
2019-06-07T16:43:42.565Z,13.40
2019-06-07T16:46:12.168Z,10.95
2019-06-07T16:48:42.859Z,17.65
2019-06-07T16:51:12.430Z,19.77
2019-06-07T16:53:42.356Z,12.07
2019-06-07T16:56:11.825Z,9.55
2019-06-07T16:58:42.310Z,23.05
2019-06-07T17:01:11.923Z,11.20
2019-06-07T17:03:41.488Z,10.60
2019-06-07T17:06:10.971Z,26.02
2019-06-07T17:08:40.427Z,17.92
2019-06-07T17:11:09.903Z,25.32
2019-06-07T17:13:40.278Z,23.75
2019-06-07T17:16:09.778Z,37.90
2019-06-07T17:18:39.211Z,16.10
2019-06-07T17:21:11.240Z,15.45
2019-06-07T17:23:41.223Z,18.05
2019-06-07T17:26:10.736Z,21.23
2019-06-07T17:28:41.625Z,20.70
2019-06-07T17:31:11.348Z,17.05
2019-06-07T17:33:41.847Z,12.07
2019-06-07T17:36:11.445Z,18.07
2019-06-07T17:38:40.847Z,8.63
2019-06-07T17:41:10.263Z,8.15
2019-06-07T17:43:50.507Z,8.48
2019-06-07T17:46:10.911Z,12.18
2019-06-07T17:48:41.441Z,11.55
2019-06-07T17:51:10.920Z,13.90
2019-06-07T17:53:41.744Z,10.60
2019-06-07T17:56:11.375Z,11.55
2019-06-07T17:58:42.115Z,16.30
2019-06-07T18:01:11.571Z,14.85
2019-06-07T18:03:40.996Z,13.58
2019-06-07T18:06:10.876Z,12.45
2019-06-07T18:08:41.403Z,12.82
2019-06-07T18:11:10.822Z,17.27
2019-06-07T18:13:40.263Z,17.37
2019-06-07T18:16:09.650Z,12.40
2019-06-07T18:18:39.480Z,12.20
2019-06-07T18:21:09.019Z,14.58
2019-06-07T18:23:38.557Z,18.05
2019-06-07T18:26:07.916Z,17.50
2019-06-07T18:28:37.384Z,12.25
2019-06-07T18:31:06.907Z,17.62
2019-06-07T18:33:36.335Z,12.20
2019-06-07T18:36:05.740Z,16.15
2019-06-07T18:38:35.147Z,15.00
2019-06-07T18:41:04.624Z,17.55
2019-06-07T18:43:34.089Z,21.73
2019-06-07T18:46:03.457Z,25.80
2019-06-07T18:48:32.895Z,28.65
2019-06-07T18:51:02.363Z,33.42
2019-06-07T18:53:31.783Z,25.95
2019-06-07T18:56:01.271Z,22.15
2019-06-07T18:58:30.734Z,24.20
2019-06-07T19:01:00.220Z,33.88
2019-06-07T19:03:29.664Z,30.40
2019-06-07T19:05:59.167Z,29.52
2019-06-07T19:08:28.584Z,31.17
2019-06-07T19:10:58.974Z,25.70
2019-06-07T19:13:28.529Z,26.30
2019-06-07T19:15:57.999Z,27.07
2019-06-07T19:18:27.437Z,35.33
2019-06-07T19:20:56.844Z,28.38
2019-06-07T19:23:26.265Z,30.92
2019-06-07T19:25:56.374Z,26.27
2019-06-07T19:28:26.057Z,21.65
2019-06-07T19:30:55.488Z,25.35
2019-06-07T19:33:24.903Z,27.05
2019-06-07T19:35:55.501Z,27.90
2019-06-07T19:38:24.913Z,29.75
2019-06-07T19:40:54.399Z,27.62
2019-06-07T19:43:23.845Z,26.75
2019-06-07T19:45:54.050Z,25.57
2019-06-07T19:48:23.631Z,28.47
2019-06-07T19:50:53.213Z,23.67
2019-06-07T19:53:22.634Z,16.90
2019-06-07T19:55:53.021Z,17.23
2019-06-07T19:58:22.536Z,16.02
2019-06-07T20:00:53.197Z,15.38
2019-06-07T20:03:22.827Z,12.35
2019-06-07T20:05:52.224Z,8.98
2019-06-07T20:08:21.649Z,15.43
2019-06-07T20:10:51.070Z,12.28
2019-06-07T20:13:20.519Z,13.80
2019-06-07T20:15:49.977Z,10.38
2019-06-07T20:18:19.395Z,8.95
2019-06-07T20:20:48.858Z,11.50
2019-06-07T20:23:18.579Z,12.45
2019-06-07T20:25:48.043Z,10.58
2019-06-07T20:28:17.494Z,10.68
2019-06-07T20:30:46.963Z,11.68
2019-06-07T20:33:16.399Z,12.00
2019-06-07T20:35:45.931Z,10.20
2019-06-07T20:41:57.185Z,10.70
2019-06-07T20:44:26.619Z,11.80
2019-06-07T20:46:56.079Z,7.67
2019-06-07T20:49:25.525Z,8.23
2019-06-07T20:51:54.945Z,9.13
2019-06-07T20:54:24.357Z,11.33
2019-06-07T20:56:53.778Z,14.35
2019-06-07T20:59:23.554Z,10.40
2019-06-07T21:01:53.020Z,7.83
2019-06-07T21:04:22.471Z,11.43
2019-06-07T21:06:51.861Z,9.18
2019-06-07T21:09:21.304Z,12.15
2019-06-07T21:11:50.856Z,11.90
2019-06-07T21:14:20.301Z,10.20
2019-06-07T21:16:49.699Z,11.45
2019-06-07T21:19:19.174Z,16.07
2019-06-07T21:21:48.753Z,12.90
2019-06-07T21:27:27.986Z,10.83
2019-06-07T21:30:39.122Z,11.65
2019-06-07T21:33:09.701Z,12.60
2019-06-07T21:35:39.268Z,11.25
2019-06-07T21:38:09.859Z,11.67
2019-06-07T21:40:39.376Z,15.07
2019-06-07T21:43:08.833Z,13.60
2019-06-07T21:45:38.247Z,8.97
2019-06-07T21:48:08.857Z,8.30
2019-06-07T21:50:38.243Z,9.55
2019-06-07T21:53:08.587Z,8.93
2019-06-07T21:55:38.161Z,9.47
2019-06-07T21:58:07.571Z,8.03
2019-06-07T22:01:15.135Z,10.53
2019-06-07T22:03:44.550Z,11.30
2019-06-07T22:06:14.493Z,11.30
2019-06-07T22:08:44.015Z,12.83
2019-06-07T22:11:14.125Z,12.73
2019-06-07T22:13:43.779Z,10.67
2019-06-07T22:16:26.321Z,13.00
2019-06-07T22:18:44.511Z,10.33
2019-06-07T22:21:16.625Z,11.30
2019-06-07T22:23:46.058Z,8.97
2019-06-07T22:26:15.651Z,9.63
2019-06-07T22:28:45.169Z,12.10
2019-06-07T22:31:15.061Z,11.87
2019-06-07T22:33:44.578Z,14.37
2019-06-07T22:36:15.905Z,10.60
2019-06-07T22:38:45.192Z,13.23
2019-06-07T22:41:15.873Z,11.33
2019-06-07T22:43:45.535Z,11.00
2019-06-07T22:46:15.130Z,9.43
2019-06-07T22:48:44.551Z,8.87
2019-06-07T22:51:14.587Z,10.93
2019-06-07T22:53:44.550Z,11.63
2019-06-07T22:56:22.967Z,11.10
2019-06-07T22:58:52.418Z,9.37
2019-06-07T23:01:21.948Z,9.90
2019-06-07T23:03:51.385Z,12.07
2019-06-07T23:06:20.894Z,10.63
2019-06-07T23:08:50.316Z,12.00
2019-06-07T23:11:19.692Z,10.57
2019-06-07T23:13:49.149Z,9.57
2019-06-07T23:16:19.918Z,11.77
2019-06-07T23:18:49.657Z,10.97
2019-06-07T23:21:20.116Z,11.70
2019-06-07T23:23:49.767Z,8.87
2019-06-07T23:26:20.605Z,12.10
2019-06-07T23:28:50.341Z,11.40
2019-06-07T23:31:20.840Z,13.50
2019-06-07T23:33:50.380Z,10.07
2019-06-07T23:36:21.201Z,11.80
2019-06-07T23:38:50.904Z,11.07
2019-06-07T23:41:22.135Z,12.23
2019-06-07T23:43:51.595Z,11.53
2019-06-07T23:46:21.659Z,11.97
2019-06-07T23:48:51.318Z,10.07
2019-06-07T23:51:22.008Z,10.40
2019-06-07T23:53:51.666Z,10.30
2019-06-07T23:56:22.274Z,10.07
2019-06-07T23:58:51.770Z,10.83
